sensor_id;sensor_type;location;lat;lon;timestamp;temperature;humidity
74458;SHT31;62896;51.032;3.712;2023-07-30T00:02:37;15.9;86
74458;SHT31;62896;51.032;3.712;2023-07-30T00:05:57;15.9;86
74458;SHT31;62896;51.032;3.712;2023-07-30T00:09:17;15.9;86
74458;SHT31;62896;51.032;3.712;2023-07-30T00:12:37;15.8;86
74458;SHT31;62896;51.032;3.712;2023-07-30T00:15:57;15.8;86
74458;SHT31;62896;51.032;3.712;2023-07-30T00:19:17;15.8;86
74458;SHT31;62896;51.032;3.712;2023-07-30T00:22:37;15.7;87
74458;SHT31;62896;51.032;3.712;2023-07-30T00:25:57;15.7;87
74458;SHT31;62896;51.032;3.712;2023-07-30T00:29:17;15.7;87
74458;SHT31;62896;51.032;3.712;2023-07-30T00:32:37;15.7;87
74458;SHT31;62896;51.032;3.712;2023-07-30T00:35:57;15.7;87
74458;SHT31;62896;51.032;3.712;2023-07-30T00:39:17;15.7;87
74458;SHT31;62896;51.032;3.712;2023-07-30T00:42:37;15.7;87
74458;SHT31;62896;51.032;3.712;2023-07-30T00:45:57;15.7;87
74458;SHT31;62896;51.032;3.712;2023-07-30T00:49:17;15.7;87
74458;SHT31;62896;51.032;3.712;2023-07-30T00:52:37;15.6;87
74458;SHT31;62896;51.032;3.712;2023-07-30T00:55:57;15.6;87
74458;SHT31;62896;51.032;3.712;2023-07-30T00:59:17;15.6;87
74458;SHT31;62896;51.032;3.712;2023-07-30T01:02:37;15.5;88
74458;SHT31;62896;51.032;3.712;2023-07-30T01:05:57;15.5;88
74458;SHT31;62896;51.032;3.712;2023-07-30T01:09:17;15.5;88
74458;SHT31;62896;51.032;3.712;2023-07-30T01:12:37;15.5;88
74458;SHT31;62896;51.032;3.712;2023-07-30T01:15:57;15.5;88
74458;SHT31;62896;51.032;3.712;2023-07-30T01:19:17;15.5;88
74458;SHT31;62896;51.032;3.712;2023-07-30T01:22:37;15.4;89
74458;SHT31;62896;51.032;3.712;2023-07-30T01:25:59;15.4;89
74458;SHT31;62896;51.032;3.712;2023-07-30T01:29:19;15.4;89
74458;SHT31;62896;51.032;3.712;2023-07-30T01:32:37;15.3;89
74458;SHT31;62896;51.032;3.712;2023-07-30T01:35:57;15.3;89
74458;SHT31;62896;51.032;3.712;2023-07-30T01:39:17;15.3;89
74458;SHT31;62896;51.032;3.712;2023-07-30T01:42:37;15.2;89
74458;SHT31;62896;51.032;3.712;2023-07-30T01:45:57;15.2;89
74458;SHT31;62896;51.032;3.712;2023-07-30T01:49:17;15.2;89
74458;SHT31;62896;51.032;3.712;2023-07-30T01:52:37;15.3;90
74458;SHT31;62896;51.032;3.712;2023-07-30T01:55:57;15.3;90
74458;SHT31;62896;51.032;3.712;2023-07-30T01:59:17;15.3;90
74458;SHT31;62896;51.032;3.712;2023-07-30T02:02:37;15.2;90
74458;SHT31;62896;51.032;3.712;2023-07-30T02:05:57;15.2;90
74458;SHT31;62896;51.032;3.712;2023-07-30T02:09:17;15.2;90
74458;SHT31;62896;51.032;3.712;2023-07-30T02:12:37;15.2;90
74458;SHT31;62896;51.032;3.712;2023-07-30T02:15:57;15.2;90
74458;SHT31;62896;51.032;3.712;2023-07-30T02:19:18;15.2;90
74458;SHT31;62896;51.032;3.712;2023-07-30T02:22:37;15.2;90
74458;SHT31;62896;51.032;3.712;2023-07-30T02:25:57;15.2;90
74458;SHT31;62896;51.032;3.712;2023-07-30T02:29:17;15.2;90
74458;SHT31;62896;51.032;3.712;2023-07-30T02:32:37;15.2;91
74458;SHT31;62896;51.032;3.712;2023-07-30T02:35:57;15.2;91
74458;SHT31;62896;51.032;3.712;2023-07-30T02:39:17;15.2;91
74458;SHT31;62896;51.032;3.712;2023-07-30T02:42:37;15.2;91
74458;SHT31;62896;51.032;3.712;2023-07-30T02:45:57;15.2;91
74458;SHT31;62896;51.032;3.712;2023-07-30T02:49:17;15.2;91
74458;SHT31;62896;51.032;3.712;2023-07-30T02:52:37;15.2;91
74458;SHT31;62896;51.032;3.712;2023-07-30T02:55:57;15.2;91
74458;SHT31;62896;51.032;3.712;2023-07-30T02:59:17;15.2;91
74458;SHT31;62896;51.032;3.712;2023-07-30T03:02:37;15.2;91
74458;SHT31;62896;51.032;3.712;2023-07-30T03:05:57;15.2;91
74458;SHT31;62896;51.032;3.712;2023-07-30T03:09:17;15.2;91
74458;SHT31;62896;51.032;3.712;2023-07-30T03:12:37;15.2;91
74458;SHT31;62896;51.032;3.712;2023-07-30T03:15:57;15.2;91
74458;SHT31;62896;51.032;3.712;2023-07-30T03:19:17;15.2;91
74458;SHT31;62896;51.032;3.712;2023-07-30T03:22:37;15.2;91
74458;SHT31;62896;51.032;3.712;2023-07-30T03:25:57;15.2;91
74458;SHT31;62896;51.032;3.712;2023-07-30T03:29:17;15.2;91
74458;SHT31;62896;51.032;3.712;2023-07-30T03:32:37;15.2;91
74458;SHT31;62896;51.032;3.712;2023-07-30T03:35:57;15.2;91
74458;SHT31;62896;51.032;3.712;2023-07-30T03:39:17;15.2;91
74458;SHT31;62896;51.032;3.712;2023-07-30T03:42:37;15.3;91
74458;SHT31;62896;51.032;3.712;2023-07-30T03:45:57;15.3;91
74458;SHT31;62896;51.032;3.712;2023-07-30T03:49:17;15.3;91
74458;SHT31;62896;51.032;3.712;2023-07-30T03:52:37;15.3;91
74458;SHT31;62896;51.032;3.712;2023-07-30T03:55:57;15.3;91
74458;SHT31;62896;51.032;3.712;2023-07-30T03:59:17;15.3;91
74458;SHT31;62896;51.032;3.712;2023-07-30T04:02:37;15.3;91
74458;SHT31;62896;51.032;3.712;2023-07-30T04:05:57;15.3;91
74458;SHT31;62896;51.032;3.712;2023-07-30T04:09:17;15.3;91
74458;SHT31;62896;51.032;3.712;2023-07-30T04:12:37;15.3;91
74458;SHT31;62896;51.032;3.712;2023-07-30T04:15:57;15.3;91
74458;SHT31;62896;51.032;3.712;2023-07-30T04:19:17;15.3;91
74458;SHT31;62896;51.032;3.712;2023-07-30T04:22:37;15.3;91
74458;SHT31;62896;51.032;3.712;2023-07-30T04:25:57;15.3;91
74458;SHT31;62896;51.032;3.712;2023-07-30T04:29:17;15.3;91
74458;SHT31;62896;51.032;3.712;2023-07-30T04:32:37;15.4;91
74458;SHT31;62896;51.032;3.712;2023-07-30T04:35:57;15.4;91
74458;SHT31;62896;51.032;3.712;2023-07-30T04:39:17;15.4;91
74458;SHT31;62896;51.032;3.712;2023-07-30T04:42:37;15.4;91
74458;SHT31;62896;51.032;3.712;2023-07-30T04:45:57;15.4;91
74458;SHT31;62896;51.032;3.712;2023-07-30T04:49:17;15.4;91
74458;SHT31;62896;51.032;3.712;2023-07-30T04:52:37;15.5;91
74458;SHT31;62896;51.032;3.712;2023-07-30T04:55:57;15.5;91
74458;SHT31;62896;51.032;3.712;2023-07-30T04:59:17;15.5;91
74458;SHT31;62896;51.032;3.712;2023-07-30T05:02:37;15.6;91
74458;SHT31;62896;51.032;3.712;2023-07-30T05:05:57;15.6;91
74458;SHT31;62896;51.032;3.712;2023-07-30T05:09:17;15.6;91
74458;SHT31;62896;51.032;3.712;2023-07-30T05:12:37;15.7;90
74458;SHT31;62896;51.032;3.712;2023-07-30T05:15:57;15.7;90
74458;SHT31;62896;51.032;3.712;2023-07-30T05:19:17;15.7;90
74458;SHT31;62896;51.032;3.712;2023-07-30T05:22:37;15.7;90
74458;SHT31;62896;51.032;3.712;2023-07-30T05:25:57;15.7;90
74458;SHT31;62896;51.032;3.712;2023-07-30T05:29:17;15.7;90
74458;SHT31;62896;51.032;3.712;2023-07-30T05:32:37;15.8;90
74458;SHT31;62896;51.032;3.712;2023-07-30T05:35:57;15.8;90
74458;SHT31;62896;51.032;3.712;2023-07-30T05:39:17;15.8;90
74458;SHT31;62896;51.032;3.712;2023-07-30T05:42:37;15.9;90
74458;SHT31;62896;51.032;3.712;2023-07-30T05:45:57;15.9;90
74458;SHT31;62896;51.032;3.712;2023-07-30T05:49:17;15.9;90
74458;SHT31;62896;51.032;3.712;2023-07-30T05:52:37;15.9;90
74458;SHT31;62896;51.032;3.712;2023-07-30T05:55:57;15.9;90
74458;SHT31;62896;51.032;3.712;2023-07-30T05:59:17;15.9;90
74458;SHT31;62896;51.032;3.712;2023-07-30T06:02:37;16;89
74458;SHT31;62896;51.032;3.712;2023-07-30T06:05:57;16;89
74458;SHT31;62896;51.032;3.712;2023-07-30T06:09:17;16;89
74458;SHT31;62896;51.032;3.712;2023-07-30T06:12:37;16.1;89
74458;SHT31;62896;51.032;3.712;2023-07-30T06:15:57;16.1;89
74458;SHT31;62896;51.032;3.712;2023-07-30T06:19:17;16.1;89
74458;SHT31;62896;51.032;3.712;2023-07-30T06:22:37;16.4;88
74458;SHT31;62896;51.032;3.712;2023-07-30T06:25:57;16.4;88
74458;SHT31;62896;51.032;3.712;2023-07-30T06:29:17;16.4;88
74458;SHT31;62896;51.032;3.712;2023-07-30T06:32:37;16.7;87
74458;SHT31;62896;51.032;3.712;2023-07-30T06:35:57;16.7;87
74458;SHT31;62896;51.032;3.712;2023-07-30T06:39:17;16.7;87
74458;SHT31;62896;51.032;3.712;2023-07-30T06:42:37;17;86
74458;SHT31;62896;51.032;3.712;2023-07-30T06:45:57;17;86
74458;SHT31;62896;51.032;3.712;2023-07-30T06:49:17;17;86
74458;SHT31;62896;51.032;3.712;2023-07-30T06:52:37;17.2;85
74458;SHT31;62896;51.032;3.712;2023-07-30T06:55:57;17.2;85
74458;SHT31;62896;51.032;3.712;2023-07-30T06:59:17;17.2;85
74458;SHT31;62896;51.032;3.712;2023-07-30T07:02:37;17.2;85
74458;SHT31;62896;51.032;3.712;2023-07-30T07:05:57;17.2;85
74458;SHT31;62896;51.032;3.712;2023-07-30T07:09:17;17.2;85
74458;SHT31;62896;51.032;3.712;2023-07-30T07:12:37;17.4;85
74458;SHT31;62896;51.032;3.712;2023-07-30T07:15:57;17.4;85
74458;SHT31;62896;51.032;3.712;2023-07-30T07:19:17;17.4;85
74458;SHT31;62896;51.032;3.712;2023-07-30T07:22:37;17.5;84
74458;SHT31;62896;51.032;3.712;2023-07-30T07:25:57;17.5;84
74458;SHT31;62896;51.032;3.712;2023-07-30T07:29:17;17.5;84
74458;SHT31;62896;51.032;3.712;2023-07-30T07:32:37;17.7;82
74458;SHT31;62896;51.032;3.712;2023-07-30T07:36:04;17.7;82
74458;SHT31;62896;51.032;3.712;2023-07-30T07:39:17;17.7;82
74458;SHT31;62896;51.032;3.712;2023-07-30T07:42:37;18.1;80
74458;SHT31;62896;51.032;3.712;2023-07-30T07:45:57;18.1;80
74458;SHT31;62896;51.032;3.712;2023-07-30T07:49:17;18.1;80
74458;SHT31;62896;51.032;3.712;2023-07-30T07:52:37;18.3;78
74458;SHT31;62896;51.032;3.712;2023-07-30T07:55:57;18.3;78
74458;SHT31;62896;51.032;3.712;2023-07-30T07:59:17;18.3;78
74458;SHT31;62896;51.032;3.712;2023-07-30T08:02:37;18.3;78
74458;SHT31;62896;51.032;3.712;2023-07-30T08:05:57;18.3;78
74458;SHT31;62896;51.032;3.712;2023-07-30T08:09:17;18.3;78
74458;SHT31;62896;51.032;3.712;2023-07-30T08:12:37;18.4;77
74458;SHT31;62896;51.032;3.712;2023-07-30T08:15:57;18.4;77
74458;SHT31;62896;51.032;3.712;2023-07-30T08:19:17;18.4;77
74458;SHT31;62896;51.032;3.712;2023-07-30T08:22:37;18.2;76
74458;SHT31;62896;51.032;3.712;2023-07-30T08:25:57;18.2;76
74458;SHT31;62896;51.032;3.712;2023-07-30T08:29:17;18.2;76
74458;SHT31;62896;51.032;3.712;2023-07-30T08:32:37;18.3;75
74458;SHT31;62896;51.032;3.712;2023-07-30T08:35:58;18.3;75
74458;SHT31;62896;51.032;3.712;2023-07-30T08:39:17;18.3;75
74458;SHT31;62896;51.032;3.712;2023-07-30T08:42:37;18.9;73
74458;SHT31;62896;51.032;3.712;2023-07-30T08:45:57;18.9;73
74458;SHT31;62896;51.032;3.712;2023-07-30T08:49:17;18.9;73
74458;SHT31;62896;51.032;3.712;2023-07-30T08:52:37;19.2;72
74458;SHT31;62896;51.032;3.712;2023-07-30T08:55:57;19.2;72
74458;SHT31;62896;51.032;3.712;2023-07-30T08:59:17;19.2;72
74458;SHT31;62896;51.032;3.712;2023-07-30T09:02:38;19.2;71
74458;SHT31;62896;51.032;3.712;2023-07-30T09:05:57;19.2;71
74458;SHT31;62896;51.032;3.712;2023-07-30T09:09:17;19.2;71
74458;SHT31;62896;51.032;3.712;2023-07-30T09:12:37;19.5;69
74458;SHT31;62896;51.032;3.712;2023-07-30T09:15:57;19.5;69
74458;SHT31;62896;51.032;3.712;2023-07-30T09:19:17;19.5;69
74458;SHT31;62896;51.032;3.712;2023-07-30T09:22:37;19.7;68
74458;SHT31;62896;51.032;3.712;2023-07-30T09:25:57;19.7;68
74458;SHT31;62896;51.032;3.712;2023-07-30T09:29:17;19.7;68
74458;SHT31;62896;51.032;3.712;2023-07-30T09:32:37;19.9;67
74458;SHT31;62896;51.032;3.712;2023-07-30T09:35:57;19.9;67
74458;SHT31;62896;51.032;3.712;2023-07-30T09:39:18;19.9;67
74458;SHT31;62896;51.032;3.712;2023-07-30T09:42:37;20.2;67
74458;SHT31;62896;51.032;3.712;2023-07-30T09:46:00;20.2;67
74458;SHT31;62896;51.032;3.712;2023-07-30T09:49:17;20.2;67
74458;SHT31;62896;51.032;3.712;2023-07-30T09:52:37;20.5;67
74458;SHT31;62896;51.032;3.712;2023-07-30T09:55:57;20.5;67
74458;SHT31;62896;51.032;3.712;2023-07-30T09:59:17;20.5;67
74458;SHT31;62896;51.032;3.712;2023-07-30T10:02:38;20.7;65
74458;SHT31;62896;51.032;3.712;2023-07-30T10:06:00;20.7;65
74458;SHT31;62896;51.032;3.712;2023-07-30T10:09:17;20.7;65
74458;SHT31;62896;51.032;3.712;2023-07-30T10:12:37;20.7;66
74458;SHT31;62896;51.032;3.712;2023-07-30T10:15:57;20.7;66
74458;SHT31;62896;51.032;3.712;2023-07-30T10:19:17;20.7;66
74458;SHT31;62896;51.032;3.712;2023-07-30T10:22:38;20.8;66
74458;SHT31;62896;51.032;3.712;2023-07-30T10:25:57;20.8;66
74458;SHT31;62896;51.032;3.712;2023-07-30T10:29:18;20.8;66
74458;SHT31;62896;51.032;3.712;2023-07-30T10:32:37;20.8;62
74458;SHT31;62896;51.032;3.712;2023-07-30T10:35:57;20.8;62
74458;SHT31;62896;51.032;3.712;2023-07-30T10:39:18;20.8;62
74458;SHT31;62896;51.032;3.712;2023-07-30T10:42:37;21.2;61
74458;SHT31;62896;51.032;3.712;2023-07-30T10:45:57;21.2;61
74458;SHT31;62896;51.032;3.712;2023-07-30T10:49:17;21.2;61
74458;SHT31;62896;51.032;3.712;2023-07-30T10:52:37;21.2;61
74458;SHT31;62896;51.032;3.712;2023-07-30T10:55:57;21.2;61
74458;SHT31;62896;51.032;3.712;2023-07-30T10:59:17;21.2;61
74458;SHT31;62896;51.032;3.712;2023-07-30T11:02:37;21.3;61
74458;SHT31;62896;51.032;3.712;2023-07-30T11:05:57;21.3;61
74458;SHT31;62896;51.032;3.712;2023-07-30T11:09:18;21.3;61
74458;SHT31;62896;51.032;3.712;2023-07-30T11:12:37;21.6;59
74458;SHT31;62896;51.032;3.712;2023-07-30T11:15:57;21.6;59
74458;SHT31;62896;51.032;3.712;2023-07-30T11:19:17;21.6;59
74458;SHT31;62896;51.032;3.712;2023-07-30T11:22:37;22.2;58
74458;SHT31;62896;51.032;3.712;2023-07-30T11:25:57;22.2;58
74458;SHT31;62896;51.032;3.712;2023-07-30T11:29:17;22.2;58
74458;SHT31;62896;51.032;3.712;2023-07-30T11:32:37;22.5;57
74458;SHT31;62896;51.032;3.712;2023-07-30T11:35:57;22.5;57
74458;SHT31;62896;51.032;3.712;2023-07-30T11:39:17;22.5;57
74458;SHT31;62896;51.032;3.712;2023-07-30T11:42:37;22.2;56
74458;SHT31;62896;51.032;3.712;2023-07-30T11:46:13;22.2;56
74458;SHT31;62896;51.032;3.712;2023-07-30T11:49:17;22.2;56
74458;SHT31;62896;51.032;3.712;2023-07-30T11:52:50;22.3;54
74458;SHT31;62896;51.032;3.712;2023-07-30T11:55:57;22.3;54
74458;SHT31;62896;51.032;3.712;2023-07-30T11:59:17;22.3;54
74458;SHT31;62896;51.032;3.712;2023-07-30T12:02:37;22.3;52
74458;SHT31;62896;51.032;3.712;2023-07-30T12:05:57;22.3;52
74458;SHT31;62896;51.032;3.712;2023-07-30T12:09:18;22.3;52
74458;SHT31;62896;51.032;3.712;2023-07-30T12:12:43;22.7;51
74458;SHT31;62896;51.032;3.712;2023-07-30T12:15:57;22.7;51
74458;SHT31;62896;51.032;3.712;2023-07-30T12:19:17;22.7;51
74458;SHT31;62896;51.032;3.712;2023-07-30T12:22:37;22.9;51
74458;SHT31;62896;51.032;3.712;2023-07-30T12:25:57;22.9;51
74458;SHT31;62896;51.032;3.712;2023-07-30T12:29:17;22.9;51
74458;SHT31;62896;51.032;3.712;2023-07-30T12:32:37;23;51
74458;SHT31;62896;51.032;3.712;2023-07-30T12:35:57;23;51
74458;SHT31;62896;51.032;3.712;2023-07-30T12:39:17;23;51
74458;SHT31;62896;51.032;3.712;2023-07-30T12:42:37;23.6;50
74458;SHT31;62896;51.032;3.712;2023-07-30T12:45:57;23.6;50
74458;SHT31;62896;51.032;3.712;2023-07-30T12:49:17;23.6;50
74458;SHT31;62896;51.032;3.712;2023-07-30T12:52:37;24;48
74458;SHT31;62896;51.032;3.712;2023-07-30T12:55:57;24;48
74458;SHT31;62896;51.032;3.712;2023-07-30T12:59:17;24;48
74458;SHT31;62896;51.032;3.712;2023-07-30T13:02:37;24.4;46
74458;SHT31;62896;51.032;3.712;2023-07-30T13:05:57;24.4;46
74458;SHT31;62896;51.032;3.712;2023-07-30T13:09:17;24.4;46
74458;SHT31;62896;51.032;3.712;2023-07-30T13:12:37;24.9;46
74458;SHT31;62896;51.032;3.712;2023-07-30T13:15:57;24.9;46
74458;SHT31;62896;51.032;3.712;2023-07-30T13:19:17;24.9;46
74458;SHT31;62896;51.032;3.712;2023-07-30T13:22:37;24.6;47
74458;SHT31;62896;51.032;3.712;2023-07-30T13:25:57;24.6;47
74458;SHT31;62896;51.032;3.712;2023-07-30T13:29:17;24.6;47
74458;SHT31;62896;51.032;3.712;2023-07-30T13:32:37;23.5;51
74458;SHT31;62896;51.032;3.712;2023-07-30T13:35:57;23.5;51
74458;SHT31;62896;51.032;3.712;2023-07-30T13:39:17;23.5;51
74458;SHT31;62896;51.032;3.712;2023-07-30T13:42:37;22.5;55
74458;SHT31;62896;51.032;3.712;2023-07-30T13:45:57;22.5;55
74458;SHT31;62896;51.032;3.712;2023-07-30T13:49:17;22.5;55
74458;SHT31;62896;51.032;3.712;2023-07-30T13:52:37;22.6;56
74458;SHT31;62896;51.032;3.712;2023-07-30T13:55:57;22.6;56
74458;SHT31;62896;51.032;3.712;2023-07-30T13:59:17;22.6;56
74458;SHT31;62896;51.032;3.712;2023-07-30T14:02:37;22.6;56
74458;SHT31;62896;51.032;3.712;2023-07-30T14:05:57;22.6;56
74458;SHT31;62896;51.032;3.712;2023-07-30T14:09:17;22.6;56
74458;SHT31;62896;51.032;3.712;2023-07-30T14:12:37;22.8;56
74458;SHT31;62896;51.032;3.712;2023-07-30T14:15:57;22.8;56
74458;SHT31;62896;51.032;3.712;2023-07-30T14:19:17;22.8;56
74458;SHT31;62896;51.032;3.712;2023-07-30T14:22:37;22.4;57
74458;SHT31;62896;51.032;3.712;2023-07-30T14:25:57;22.4;57
74458;SHT31;62896;51.032;3.712;2023-07-30T14:29:17;22.4;57
74458;SHT31;62896;51.032;3.712;2023-07-30T14:32:37;21.7;59
74458;SHT31;62896;51.032;3.712;2023-07-30T14:35:57;21.7;59
74458;SHT31;62896;51.032;3.712;2023-07-30T14:39:17;21.7;59
74458;SHT31;62896;51.032;3.712;2023-07-30T14:42:37;21.2;63
74458;SHT31;62896;51.032;3.712;2023-07-30T14:45:57;21.2;63
74458;SHT31;62896;51.032;3.712;2023-07-30T14:49:17;21.2;63
74458;SHT31;62896;51.032;3.712;2023-07-30T14:52:37;20.3;68
74458;SHT31;62896;51.032;3.712;2023-07-30T14:55:57;20.3;68
74458;SHT31;62896;51.032;3.712;2023-07-30T14:59:17;20.3;68
74458;SHT31;62896;51.032;3.712;2023-07-30T15:02:37;19.8;70
74458;SHT31;62896;51.032;3.712;2023-07-30T15:05:57;19.8;70
74458;SHT31;62896;51.032;3.712;2023-07-30T15:09:17;19.8;70
74458;SHT31;62896;51.032;3.712;2023-07-30T15:12:37;19.4;76
74458;SHT31;62896;51.032;3.712;2023-07-30T15:15:57;19.4;76
74458;SHT31;62896;51.032;3.712;2023-07-30T15:19:17;19.4;76
74458;SHT31;62896;51.032;3.712;2023-07-30T15:22:37;19.3;78
74458;SHT31;62896;51.032;3.712;2023-07-30T15:25:57;19.3;78
74458;SHT31;62896;51.032;3.712;2023-07-30T15:29:17;19.3;78
74458;SHT31;62896;51.032;3.712;2023-07-30T15:32:40;19.2;78
74458;SHT31;62896;51.032;3.712;2023-07-30T15:35:57;19.2;78
74458;SHT31;62896;51.032;3.712;2023-07-30T15:39:19;19.2;78
74458;SHT31;62896;51.032;3.712;2023-07-30T15:42:37;18.8;79
74458;SHT31;62896;51.032;3.712;2023-07-30T15:45:57;18.8;79
74458;SHT31;62896;51.032;3.712;2023-07-30T15:49:17;18.8;79
74458;SHT31;62896;51.032;3.712;2023-07-30T15:52:37;18.5;82
74458;SHT31;62896;51.032;3.712;2023-07-30T15:55:59;18.5;82
74458;SHT31;62896;51.032;3.712;2023-07-30T15:59:17;18.5;82
74458;SHT31;62896;51.032;3.712;2023-07-30T16:02:37;18;86
74458;SHT31;62896;51.032;3.712;2023-07-30T16:05:57;18;86
74458;SHT31;62896;51.032;3.712;2023-07-30T16:09:17;18;86
74458;SHT31;62896;51.032;3.712;2023-07-30T16:12:37;17.7;90
74458;SHT31;62896;51.032;3.712;2023-07-30T16:16:06;17.7;90
74458;SHT31;62896;51.032;3.712;2023-07-30T16:19:17;17.7;90
74458;SHT31;62896;51.032;3.712;2023-07-30T16:22:37;17.6;91
74458;SHT31;62896;51.032;3.712;2023-07-30T16:25:57;17.6;91
74458;SHT31;62896;51.032;3.712;2023-07-30T16:29:17;17.6;91
74458;SHT31;62896;51.032;3.712;2023-07-30T16:32:37;17.4;93
74458;SHT31;62896;51.032;3.712;2023-07-30T16:35:57;17.4;93
74458;SHT31;62896;51.032;3.712;2023-07-30T16:39:17;17.4;93
74458;SHT31;62896;51.032;3.712;2023-07-30T16:42:37;17.3;94
74458;SHT31;62896;51.032;3.712;2023-07-30T16:45:58;17.3;94
74458;SHT31;62896;51.032;3.712;2023-07-30T16:49:17;17.3;94
74458;SHT31;62896;51.032;3.712;2023-07-30T16:52:37;17.3;95
74458;SHT31;62896;51.032;3.712;2023-07-30T16:55:57;17.3;95
74458;SHT31;62896;51.032;3.712;2023-07-30T16:59:17;17.3;95
74458;SHT31;62896;51.032;3.712;2023-07-30T17:02:37;17.3;95
74458;SHT31;62896;51.032;3.712;2023-07-30T17:05:57;17.3;95
74458;SHT31;62896;51.032;3.712;2023-07-30T17:09:17;17.3;95
74458;SHT31;62896;51.032;3.712;2023-07-30T17:12:37;17.3;96
74458;SHT31;62896;51.032;3.712;2023-07-30T17:16:02;17.3;96
74458;SHT31;62896;51.032;3.712;2023-07-30T17:19:17;17.3;96
74458;SHT31;62896;51.032;3.712;2023-07-30T17:22:37;17.2;96
74458;SHT31;62896;51.032;3.712;2023-07-30T17:25:58;17.2;96
74458;SHT31;62896;51.032;3.712;2023-07-30T17:29:17;17.2;96
74458;SHT31;62896;51.032;3.712;2023-07-30T17:32:37;17.3;96
74458;SHT31;62896;51.032;3.712;2023-07-30T17:36:00;17.3;96
74458;SHT31;62896;51.032;3.712;2023-07-30T17:39:17;17.3;96
74458;SHT31;62896;51.032;3.712;2023-07-30T17:42:37;17.3;96
74458;SHT31;62896;51.032;3.712;2023-07-30T17:46:01;17.3;96
74458;SHT31;62896;51.032;3.712;2023-07-30T17:49:17;17.3;96
74458;SHT31;62896;51.032;3.712;2023-07-30T17:52:37;17.4;96
74458;SHT31;62896;51.032;3.712;2023-07-30T17:55:58;17.4;96
74458;SHT31;62896;51.032;3.712;2023-07-30T17:59:17;17.4;96
74458;SHT31;62896;51.032;3.712;2023-07-30T18:02:37;17.5;96
74458;SHT31;62896;51.032;3.712;2023-07-30T18:05:57;17.5;96
74458;SHT31;62896;51.032;3.712;2023-07-30T18:09:17;17.5;96
74458;SHT31;62896;51.032;3.712;2023-07-30T18:12:37;17.5;96
74458;SHT31;62896;51.032;3.712;2023-07-30T18:15:57;17.5;96
74458;SHT31;62896;51.032;3.712;2023-07-30T18:19:17;17.5;96
74458;SHT31;62896;51.032;3.712;2023-07-30T18:22:37;17.6;95
74458;SHT31;62896;51.032;3.712;2023-07-30T18:25:57;17.6;95
74458;SHT31;62896;51.032;3.712;2023-07-30T18:29:17;17.6;95
74458;SHT31;62896;51.032;3.712;2023-07-30T18:32:37;17.6;95
74458;SHT31;62896;51.032;3.712;2023-07-30T18:35:58;17.6;95
74458;SHT31;62896;51.032;3.712;2023-07-30T18:39:17;17.6;95
74458;SHT31;62896;51.032;3.712;2023-07-30T18:42:38;17.6;95
74458;SHT31;62896;51.032;3.712;2023-07-30T18:45:57;17.6;95
74458;SHT31;62896;51.032;3.712;2023-07-30T18:49:17;17.6;95
74458;SHT31;62896;51.032;3.712;2023-07-30T18:52:37;17.6;95
74458;SHT31;62896;51.032;3.712;2023-07-30T18:55:57;17.6;95
74458;SHT31;62896;51.032;3.712;2023-07-30T18:59:17;17.6;95
74458;SHT31;62896;51.032;3.712;2023-07-30T19:02:37;17.6;94
74458;SHT31;62896;51.032;3.712;2023-07-30T19:05:57;17.6;94
74458;SHT31;62896;51.032;3.712;2023-07-30T19:09:17;17.6;94
74458;SHT31;62896;51.032;3.712;2023-07-30T19:12:38;17.5;94
74458;SHT31;62896;51.032;3.712;2023-07-30T19:15:58;17.5;94
74458;SHT31;62896;51.032;3.712;2023-07-30T19:19:17;17.5;94
74458;SHT31;62896;51.032;3.712;2023-07-30T19:22:37;17.5;94
74458;SHT31;62896;51.032;3.712;2023-07-30T19:25:57;17.5;94
74458;SHT31;62896;51.032;3.712;2023-07-30T19:29:17;17.5;94
74458;SHT31;62896;51.032;3.712;2023-07-30T19:32:37;17.4;94
74458;SHT31;62896;51.032;3.712;2023-07-30T19:35:57;17.4;94
74458;SHT31;62896;51.032;3.712;2023-07-30T19:39:17;17.4;94
74458;SHT31;62896;51.032;3.712;2023-07-30T19:42:37;17.3;94
74458;SHT31;62896;51.032;3.712;2023-07-30T19:45:57;17.3;94
74458;SHT31;62896;51.032;3.712;2023-07-30T19:49:17;17.3;94
74458;SHT31;62896;51.032;3.712;2023-07-30T19:52:37;17.2;95
74458;SHT31;62896;51.032;3.712;2023-07-30T19:55:57;17.2;95
74458;SHT31;62896;51.032;3.712;2023-07-30T19:59:17;17.2;95
74458;SHT31;62896;51.032;3.712;2023-07-30T20:02:37;17;96
74458;SHT31;62896;51.032;3.712;2023-07-30T20:05:58;17;96
74458;SHT31;62896;51.032;3.712;2023-07-30T20:09:17;17;96
74458;SHT31;62896;51.032;3.712;2023-07-30T20:12:37;17;96
74458;SHT31;62896;51.032;3.712;2023-07-30T20:15:58;17;96
74458;SHT31;62896;51.032;3.712;2023-07-30T20:19:17;17;96
74458;SHT31;62896;51.032;3.712;2023-07-30T20:22:37;17;95
74458;SHT31;62896;51.032;3.712;2023-07-30T20:25:57;17;95
74458;SHT31;62896;51.032;3.712;2023-07-30T20:29:17;17;95
74458;SHT31;62896;51.032;3.712;2023-07-30T20:32:38;17.1;95
74458;SHT31;62896;51.032;3.712;2023-07-30T20:35:57;17.1;95
74458;SHT31;62896;51.032;3.712;2023-07-30T20:39:17;17.1;95
74458;SHT31;62896;51.032;3.712;2023-07-30T20:42:37;17.1;94
74458;SHT31;62896;51.032;3.712;2023-07-30T20:45:57;17.1;94
74458;SHT31;62896;51.032;3.712;2023-07-30T20:49:17;17.1;94
74458;SHT31;62896;51.032;3.712;2023-07-30T20:52:37;17.2;94
74458;SHT31;62896;51.032;3.712;2023-07-30T20:55:58;17.2;94
74458;SHT31;62896;51.032;3.712;2023-07-30T20:59:17;17.2;94
74458;SHT31;62896;51.032;3.712;2023-07-30T21:02:38;17.2;93
74458;SHT31;62896;51.032;3.712;2023-07-30T21:05:58;17.2;93
74458;SHT31;62896;51.032;3.712;2023-07-30T21:09:17;17.2;93
74458;SHT31;62896;51.032;3.712;2023-07-30T21:12:37;17.2;93
74458;SHT31;62896;51.032;3.712;2023-07-30T21:15:57;17.2;93
74458;SHT31;62896;51.032;3.712;2023-07-30T21:19:17;17.2;93
74458;SHT31;62896;51.032;3.712;2023-07-30T21:22:37;17.2;93
74458;SHT31;62896;51.032;3.712;2023-07-30T21:25:58;17.2;93
74458;SHT31;62896;51.032;3.712;2023-07-30T21:29:18;17.2;93
74458;SHT31;62896;51.032;3.712;2023-07-30T21:32:37;17.2;92
74458;SHT31;62896;51.032;3.712;2023-07-30T21:35:58;17.2;92
74458;SHT31;62896;51.032;3.712;2023-07-30T21:39:17;17.2;92
74458;SHT31;62896;51.032;3.712;2023-07-30T21:42:37;17.2;91
74458;SHT31;62896;51.032;3.712;2023-07-30T21:45:57;17.2;91
74458;SHT31;62896;51.032;3.712;2023-07-30T21:49:17;17.2;91
74458;SHT31;62896;51.032;3.712;2023-07-30T21:52:37;17.2;91
74458;SHT31;62896;51.032;3.712;2023-07-30T21:55:58;17.2;91
74458;SHT31;62896;51.032;3.712;2023-07-30T21:59:18;17.2;91
74458;SHT31;62896;51.032;3.712;2023-07-30T22:02:38;17.2;90
74458;SHT31;62896;51.032;3.712;2023-07-30T22:05:58;17.2;90
74458;SHT31;62896;51.032;3.712;2023-07-30T22:09:18;17.2;90
74458;SHT31;62896;51.032;3.712;2023-07-30T22:12:38;17.2;90
74458;SHT31;62896;51.032;3.712;2023-07-30T22:15:58;17.2;90
74458;SHT31;62896;51.032;3.712;2023-07-30T22:19:18;17.2;90
74458;SHT31;62896;51.032;3.712;2023-07-30T22:22:38;17.2;90
74458;SHT31;62896;51.032;3.712;2023-07-30T22:25:58;17.2;90
74458;SHT31;62896;51.032;3.712;2023-07-30T22:29:18;17.2;90
74458;SHT31;62896;51.032;3.712;2023-07-30T22:32:38;17.2;90